Lakewood Club, Michigan
Current Conditions -  °F | °C
As of 8:34 PM on Thursday 27 Nov 2014 (Local Time) from KFFX Reporting Station
Overcast Overcast  
Wind Chill: -10°   Ceiling: 4200
Heat Index: -7°   Visibility: 10mi
Dew Point: -11°   Wind: 5mph
Humidity: 74%   Direction: 290°WNW
Pressure: 30.34"   Gusts: NA
Location:  43.3636°N, 86.1512°W
Report Text: KFFX 280134Z AUTO 29004KT 10SM OVC042 M07/M11 A3034 RMK AO2 T10671106
Loading
Personal Weather Stations






























Interactive Weather Map New forecast layout! Learn more

10-Day Weather Forecast

Advertisements
Track Severe Weather on mobile